Time;durP1;ratioP1;P1;durP2;ratioP2;P2;SDS_P1;SDS_P2;PMS_P1;PMS_P2;Temp;Humidity;BMP_temperature;BMP_pressure;BME280_temperature;BME280_humidity;BME280_pressure;Samples;Min_cycle;Max_cycle;Signal;HPM_P1;HPM_P2
2022/11/27 00:02:27;;;;;;;217.23;41.20;;;1.00;99.90;;;;;;5075123;28;20623;-72
2022/11/27 00:04:53;;;;;;;107.53;32.77;;;1.10;99.90;;;;;;5075042;28;20193;-72
2022/11/27 00:07:20;;;;;;;369.07;46.50;;;1.10;99.90;;;;;;5074790;28;20267;-73
2022/11/27 00:09:47;;;;;;;243.23;42.93;;;1.00;99.90;;;;;;5075835;28;20201;-72
2022/11/27 00:12:13;;;;;;;300.70;45.30;;;1.00;99.90;;;;;;5077237;28;20200;-72
2022/11/27 00:14:40;;;;;;;330.20;46.00;;;1.00;99.90;;;;;;5076916;28;20254;-72
2022/11/27 00:17:07;;;;;;;373.20;47.73;;;1.00;99.90;;;;;;5076870;28;20201;-72
2022/11/27 00:19:34;;;;;;;339.17;44.00;;;0.90;99.90;;;;;;5076680;28;20224;-72
2022/11/27 00:22:01;;;;;;;429.37;48.43;;;0.90;99.90;;;;;;5077083;28;20201;-72
2022/11/27 00:24:28;;;;;;;287.93;36.63;;;0.90;99.90;;;;;;5078000;28;20204;-72
2022/11/27 00:26:55;;;;;;;298.53;37.80;;;0.80;99.90;;;;;;5075203;28;20254;-71
2022/11/27 00:29:21;;;;;;;287.90;37.67;;;0.80;99.90;;;;;;5074513;28;20192;-72
2022/11/27 00:31:48;;;;;;;200.27;30.93;;;0.80;99.90;;;;;;5074680;28;20247;-71
2022/11/27 00:34:14;;;;;;;155.23;29.87;;;0.70;99.90;;;;;;5075533;28;20247;-71
2022/11/27 00:36:42;;;;;;;205.53;34.20;;;0.80;99.90;;;;;;5074863;28;20201;-71
2022/11/27 00:39:10;;;;;;;243.67;34.47;;;0.70;99.90;;;;;;5074811;28;20197;-71
2022/11/27 00:41:36;;;;;;;200.97;33.03;;;0.70;99.90;;;;;;5074547;28;20233;-71
2022/11/27 00:44:03;;;;;;;148.63;29.00;;;0.70;99.90;;;;;;5074612;28;20193;-71
2022/11/27 00:46:32;;;;;;;109.67;28.40;;;0.70;99.90;;;;;;5074391;28;20209;-71
2022/11/27 00:49:01;;;;;;;160.37;30.33;;;0.60;99.90;;;;;;5074323;28;20234;-71
2022/11/27 00:51:28;;;;;;;116.63;27.53;;;0.60;99.90;;;;;;5074238;28;20652;-71
2022/11/27 00:53:57;;;;;;;125.53;29.23;;;0.60;99.90;;;;;;5074435;28;20250;-72
2022/11/27 00:56:25;;;;;;;162.83;29.37;;;0.50;99.90;;;;;;5080021;28;20246;-75
2022/11/27 00:58:52;;;;;;;176.93;34.27;;;0.50;99.90;;;;;;5082251;28;20193;-72
2022/11/27 01:01:20;;;;;;;156.30;28.97;;;0.40;99.90;;;;;;5078784;28;20286;-72
2022/11/27 01:03:47;;;;;;;172.23;32.03;;;0.40;99.90;;;;;;5080571;28;20201;-72
2022/11/27 01:06:15;;;;;;;140.57;28.70;;;0.20;99.90;;;;;;5080274;28;20225;-72
2022/11/27 01:08:42;;;;;;;56.30;24.47;;;0.20;99.90;;;;;;5080256;28;20226;-73
2022/11/27 01:11:14;;;;;;;100.83;27.03;;;0.30;99.90;;;;;;5081434;28;20602;-72
2022/11/27 01:13:42;;;;;;;119.87;26.57;;;0.30;99.90;;;;;;5079759;28;20291;-72
2022/11/27 01:16:10;;;;;;;122.27;29.37;;;0.30;99.90;;;;;;5080733;28;20201;-72
2022/11/27 01:18:38;;;;;;;72.20;25.43;;;0.20;99.90;;;;;;5078696;28;20223;-72
2022/11/27 01:21:06;;;;;;;101.80;25.40;;;0.20;99.90;;;;;;5079781;28;20278;-72
2022/11/27 01:23:33;;;;;;;76.33;24.50;;;0.10;99.90;;;;;;5078476;28;20201;-73
2022/11/27 01:26:00;;;;;;;51.73;24.03;;;0.10;99.90;;;;;;5079755;28;20197;-72
2022/11/27 01:28:28;;;;;;;80.30;26.87;;;0.10;99.90;;;;;;5078836;28;20238;-72
2022/11/27 01:30:56;;;;;;;73.70;24.03;;;0.00;99.90;;;;;;5079830;28;20204;-72
2022/11/27 01:33:22;;;;;;;75.07;27.27;;;0.00;99.90;;;;;;5078715;28;20224;-72
2022/11/27 01:35:57;;;;;;;95.90;26.27;;;0.10;99.90;;;;;;5079572;28;20223;-74
2022/11/27 01:38:24;;;;;;;114.27;28.33;;;0.00;99.90;;;;;;5079170;28;20204;-72
2022/11/27 01:40:56;;;;;;;75.53;27.70;;;0.00;99.90;;;;;;5078420;28;20250;-72
2022/11/27 01:43:42;;;;;;;64.23;25.20;;;0.00;99.90;;;;;;5079832;28;20258;-72
2022/11/27 01:46:27;;;;;;;112.97;26.87;;;0.00;99.90;;;;;;5079875;28;20645;-72
2022/11/27 01:48:58;;;;;;;85.00;25.03;;;0.00;99.90;;;;;;5079563;28;20201;-72
2022/11/27 01:51:25;;;;;;;139.47;29.60;;;-0.10;99.90;;;;;;5081311;28;20204;-72
2022/11/27 01:53:53;;;;;;;126.07;28.83;;;-0.10;99.90;;;;;;5080051;28;20197;-72
2022/11/27 01:56:21;;;;;;;119.43;28.23;;;-0.20;99.90;;;;;;5079736;28;20222;-72
2022/11/27 01:58:50;;;;;;;101.33;26.07;;;-0.20;99.90;;;;;;5074878;28;20656;-72
2022/11/27 02:01:17;;;;;;;67.73;24.43;;;-0.20;99.90;;;;;;5073603;28;20278;-72
2022/11/27 02:03:44;;;;;;;53.10;22.23;;;-0.20;99.90;;;;;;5073535;28;20345;-72
2022/11/27 02:06:13;;;;;;;63.90;24.03;;;-0.30;99.90;;;;;;5072985;28;20232;-72
2022/11/27 02:08:40;;;;;;;55.10;21.60;;;-0.40;99.90;;;;;;5073813;28;20201;-72
2022/11/27 02:11:13;;;;;;;40.30;20.23;;;-0.50;99.90;;;;;;5074187;28;20193;-72
2022/11/27 02:13:48;;;;;;;36.87;19.97;;;-0.40;99.90;;;;;;5073860;28;20203;-72
2022/11/27 02:16:24;;;;;;;43.83;21.80;;;-0.60;99.90;;;;;;5073284;28;20204;-72
2022/11/27 02:18:59;;;;;;;43.07;21.07;;;-0.60;99.90;;;;;;5072979;28;20200;-72
2022/11/27 02:21:34;;;;;;;51.10;21.30;;;-0.60;99.90;;;;;;5073237;28;20232;-72
2022/11/27 02:24:21;;;;;;;44.63;22.03;;;-0.70;99.90;;;;;;5073514;28;20585;-72
2022/11/27 02:27:08;;;;;;;39.33;20.87;;;-0.70;99.90;;;;;;5073771;28;20197;-72
2022/11/27 02:29:36;;;;;;;41.77;21.27;;;-0.70;99.90;;;;;;5073211;28;20201;-72
2022/11/27 02:32:09;;;;;;;34.43;18.03;;;-0.70;99.90;;;;;;5073145;28;20197;-72
2022/11/27 02:34:43;;;;;;;34.13;20.07;;;-0.80;99.90;;;;;;5073055;28;20255;-72
2022/11/27 02:37:15;;;;;;;36.13;19.57;;;-0.80;99.90;;;;;;5072838;28;20288;-72
2022/11/27 02:39:48;;;;;;;34.27;19.10;;;-0.90;99.90;;;;;;5073276;28;20626;-72
2022/11/27 02:42:20;;;;;;;33.13;19.07;;;-0.90;99.90;;;;;;5073773;28;20246;-72
2022/11/27 02:44:54;;;;;;;30.43;17.83;;;-1.00;99.90;;;;;;5073390;28;20250;-72
2022/11/27 02:47:22;;;;;;;32.10;17.47;;;-1.10;99.90;;;;;;5073741;28;20231;-72
2022/11/27 02:49:51;;;;;;;32.73;18.57;;;-1.10;99.90;;;;;;5073504;28;20197;-71
2022/11/27 02:52:19;;;;;;;34.93;20.20;;;-1.10;99.90;;;;;;5075222;28;20201;-71
2022/11/27 02:54:50;;;;;;;35.30;19.07;;;-1.10;99.90;;;;;;5079637;28;20197;-71
2022/11/27 02:57:18;;;;;;;28.83;18.23;;;-1.00;99.90;;;;;;5078902;28;20490;-71
2022/11/27 02:59:45;;;;;;;28.73;18.10;;;-0.90;99.90;;;;;;5084289;28;20197;-72
2022/11/27 03:02:18;;;;;;;28.80;18.03;;;-0.80;99.90;;;;;;5084630;28;20229;-71
2022/11/27 03:04:50;;;;;;;29.73;18.33;;;-0.80;99.90;;;;;;5079635;28;20648;-71
2022/11/27 03:07:23;;;;;;;33.93;19.77;;;-0.80;99.90;;;;;;5078814;28;20233;-72
2022/11/27 03:09:53;;;;;;;44.00;20.63;;;-0.70;99.90;;;;;;5084901;28;20197;-71
2022/11/27 03:12:20;;;;;;;41.47;20.60;;;-0.60;99.90;;;;;;5079194;28;20201;-71
2022/11/27 03:14:48;;;;;;;55.77;21.43;;;-0.50;99.90;;;;;;5079041;28;20656;-72
2022/11/27 03:17:31;;;;;;;72.93;23.27;;;-0.50;99.90;;;;;;5078238;28;20251;-71
2022/11/27 03:20:02;;;;;;;71.57;24.07;;;-0.50;99.90;;;;;;5077916;28;20205;-71
2022/11/27 03:22:30;;;;;;;83.43;24.83;;;-0.40;99.90;;;;;;5076186;28;20208;-71
2022/11/27 03:24:58;;;;;;;100.17;24.30;;;-0.30;99.90;;;;;;5075885;28;20239;-71
2022/11/27 03:27:30;;;;;;;131.23;26.47;;;-0.30;99.90;;;;;;5075787;28;20675;-71
2022/11/27 03:29:59;;;;;;;78.07;22.63;;;-0.30;99.90;;;;;;5076212;28;20335;-71
2022/11/27 03:32:30;;;;;;;157.40;27.53;;;-0.20;99.90;;;;;;5075601;28;20652;-71
2022/11/27 03:34:57;;;;;;;87.33;23.93;;;-0.20;99.90;;;;;;5075888;28;20248;-71
2022/11/27 03:37:24;;;;;;;122.63;27.00;;;-0.10;99.90;;;;;;5075821;28;20200;-72
2022/11/27 03:39:52;;;;;;;214.47;32.40;;;-0.10;99.90;;;;;;5075586;28;20201;-71
2022/11/27 03:42:24;;;;;;;153.10;29.60;;;-0.10;99.90;;;;;;5075710;28;20278;-71
2022/11/27 03:44:57;;;;;;;63.33;25.03;;;-0.10;99.90;;;;;;5075582;28;20706;-71
2022/11/27 03:47:38;;;;;;;121.30;29.23;;;0.00;99.90;;;;;;5075599;28;20250;-71
2022/11/27 03:50:17;;;;;;;137.40;28.90;;;0.00;99.90;;;;;;5075226;28;20660;-71
2022/11/27 03:52:51;;;;;;;188.50;32.83;;;0.00;99.90;;;;;;5075247;28;20656;-72
2022/11/27 03:55:27;;;;;;;165.57;32.30;;;0.00;99.90;;;;;;5075522;28;20227;-71
2022/11/27 03:57:59;;;;;;;175.60;32.93;;;0.10;99.90;;;;;;5075265;28;20603;-71
2022/11/27 04:00:30;;;;;;;164.50;32.20;;;0.10;99.90;;;;;;5075337;28;20247;-72
2022/11/27 04:02:58;;;;;;;141.67;32.87;;;0.10;99.90;;;;;;5074741;28;20224;-72
2022/11/27 04:05:25;;;;;;;249.93;34.93;;;0.10;99.90;;;;;;5074912;28;20200;-72
2022/11/27 04:07:51;;;;;;;70.50;25.97;;;0.00;99.90;;;;;;5074590;28;20232;-72
2022/11/27 04:10:18;;;;;;;127.13;29.07;;;0.00;99.90;;;;;;5075095;28;20197;-72
2022/11/27 04:12:45;;;;;;;126.47;30.57;;;0.00;99.90;;;;;;5075127;28;20200;-72
2022/11/27 04:15:12;;;;;;;99.73;27.93;;;0.00;99.90;;;;;;5074843;28;20197;-72
2022/11/27 04:17:39;;;;;;;80.87;26.53;;;0.00;99.90;;;;;;5075168;28;20283;-72
2022/11/27 04:20:09;;;;;;;106.20;27.87;;;0.00;99.90;;;;;;5075050;28;20246;-72
2022/11/27 04:22:36;;;;;;;125.20;28.30;;;0.00;99.90;;;;;;5075329;28;20286;-72
2022/11/27 04:25:03;;;;;;;148.73;28.13;;;0.10;99.90;;;;;;5075185;28;20247;-72
2022/11/27 04:27:30;;;;;;;144.70;27.40;;;0.00;99.90;;;;;;5074932;28;20197;-72
2022/11/27 04:29:56;;;;;;;149.53;27.70;;;0.00;99.90;;;;;;5075197;28;20209;-72
2022/11/27 04:32:23;;;;;;;256.13;31.47;;;0.00;99.90;;;;;;5074837;28;20657;-72
2022/11/27 04:34:49;;;;;;;158.13;30.20;;;-0.10;99.90;;;;;;5074537;28;20675;-72
2022/11/27 04:37:17;;;;;;;190.20;27.83;;;0.00;99.90;;;;;;5074634;28;20208;-72
2022/11/27 04:39:44;;;;;;;98.03;25.97;;;-0.10;99.90;;;;;;5074567;28;20201;-72
2022/11/27 04:42:11;;;;;;;89.13;24.67;;;-0.10;99.90;;;;;;5074519;28;20225;-72
2022/11/27 04:44:37;;;;;;;162.93;26.60;;;0.00;99.90;;;;;;5074570;28;20197;-72
2022/11/27 04:47:04;;;;;;;180.27;27.83;;;-0.10;99.90;;;;;;5074698;28;20200;-72
2022/11/27 04:49:31;;;;;;;147.93;27.03;;;-0.10;99.90;;;;;;5074026;28;20576;-72
2022/11/27 04:51:57;;;;;;;132.80;26.50;;;-0.10;99.90;;;;;;5073939;28;20262;-72
2022/11/27 04:54:25;;;;;;;112.93;26.23;;;-0.20;99.90;;;;;;5074089;28;20204;-72
2022/11/27 04:56:52;;;;;;;124.17;24.77;;;-0.20;99.90;;;;;;5073988;28;20201;-72
2022/11/27 04:59:19;;;;;;;104.33;24.10;;;-0.20;99.90;;;;;;5074089;28;20208;-72
2022/11/27 05:01:46;;;;;;;117.13;24.20;;;-0.20;99.90;;;;;;5074044;28;20278;-72
2022/11/27 05:04:12;;;;;;;116.97;25.17;;;-0.20;99.90;;;;;;5074003;28;20242;-72
2022/11/27 05:06:39;;;;;;;121.07;24.60;;;-0.30;99.90;;;;;;5073557;28;20225;-71
2022/11/27 05:09:06;;;;;;;80.57;24.33;;;-0.30;99.90;;;;;;5073877;28;20205;-72
2022/11/27 05:11:34;;;;;;;75.57;23.07;;;-0.30;99.90;;;;;;5073695;28;20196;-72
2022/11/27 05:14:16;;;;;;;103.73;23.53;;;-0.30;99.90;;;;;;5074100;28;20205;-72
2022/11/27 05:16:45;;;;;;;87.30;23.00;;;-0.40;99.90;;;;;;5073700;28;20205;-72
2022/11/27 05:19:13;;;;;;;114.80;25.20;;;-0.40;99.90;;;;;;5073862;28;20247;-72
2022/11/27 05:21:41;;;;;;;49.83;20.90;;;-0.40;99.90;;;;;;5073587;28;20227;-72
2022/11/27 05:24:08;;;;;;;58.63;22.33;;;-0.40;99.90;;;;;;5073739;28;20251;-72
2022/11/27 05:26:37;;;;;;;102.17;25.77;;;-0.40;99.90;;;;;;5073691;28;20660;-72
2022/11/27 05:29:05;;;;;;;101.77;26.87;;;-0.40;99.90;;;;;;5073768;28;20254;-72
2022/11/27 05:31:31;;;;;;;109.73;26.27;;;-0.30;99.90;;;;;;5075008;28;20247;-73
2022/11/27 05:33:58;;;;;;;64.67;24.50;;;-0.30;99.90;;;;;;5077009;28;20644;-72
2022/11/27 05:36:25;;;;;;;83.57;25.90;;;-0.30;99.90;;;;;;5076775;28;20220;-72
2022/11/27 05:38:52;;;;;;;118.60;26.93;;;-0.30;99.90;;;;;;5078076;28;20247;-72
2022/11/27 05:41:18;;;;;;;106.17;25.77;;;-0.40;99.90;;;;;;5080407;28;20220;-72
2022/11/27 05:43:47;;;;;;;185.90;33.07;;;-0.40;99.90;;;;;;5081571;28;20201;-72
2022/11/27 05:46:16;;;;;;;97.23;27.23;;;-0.40;99.90;;;;;;5077902;28;20208;-71
2022/11/27 05:48:43;;;;;;;93.07;24.00;;;-0.50;99.90;;;;;;5075296;28;20201;-72
2022/11/27 05:51:10;;;;;;;81.03;24.63;;;-0.50;99.90;;;;;;5075504;28;20205;-72
2022/11/27 05:53:36;;;;;;;65.00;23.83;;;-0.50;99.90;;;;;;5074406;28;20595;-71
2022/11/27 05:56:05;;;;;;;89.87;24.40;;;-0.50;99.90;;;;;;5073464;28;20679;-72
2022/11/27 05:58:32;;;;;;;149.70;28.30;;;-0.60;99.90;;;;;;5073513;28;20200;-71
2022/11/27 06:01:00;;;;;;;85.27;25.60;;;-0.50;99.90;;;;;;5073201;28;20197;-71
2022/11/27 06:03:28;;;;;;;102.13;27.10;;;-0.50;99.90;;;;;;5073078;28;20258;-71
2022/11/27 06:05:54;;;;;;;101.90;27.50;;;-0.50;99.90;;;;;;5073241;28;20262;-71
2022/11/27 06:08:21;;;;;;;191.87;33.50;;;-0.50;99.90;;;;;;5073185;28;20200;-72
2022/11/27 06:10:48;;;;;;;178.57;30.97;;;-0.50;99.90;;;;;;5073293;28;20197;-71
2022/11/27 06:13:15;;;;;;;119.10;27.23;;;-0.60;99.90;;;;;;5073320;28;20212;-71
2022/11/27 06:15:42;;;;;;;98.80;27.03;;;-0.60;99.90;;;;;;5073174;28;20205;-71
2022/11/27 06:18:12;;;;;;;112.23;29.77;;;-0.60;99.90;;;;;;5073046;28;20205;-72
2022/11/27 06:20:39;;;;;;;124.17;29.17;;;-0.60;99.90;;;;;;5073078;28;20679;-71
2022/11/27 06:23:05;;;;;;;104.07;29.63;;;-0.70;99.90;;;;;;5073174;28;20274;-71
2022/11/27 06:25:32;;;;;;;109.60;30.00;;;-0.70;99.90;;;;;;5072690;28;20254;-72
2022/11/27 06:27:59;;;;;;;86.80;26.10;;;-0.70;99.90;;;;;;5075683;28;20201;-72
2022/11/27 06:30:25;;;;;;;91.23;27.63;;;-0.70;99.90;;;;;;5076711;28;20201;-71
2022/11/27 06:32:52;;;;;;;83.67;27.00;;;-0.70;99.90;;;;;;5076742;28;20258;-71
2022/11/27 06:35:20;;;;;;;108.27;27.37;;;-0.70;99.90;;;;;;5077016;28;20247;-72
2022/11/27 06:37:47;;;;;;;79.93;25.43;;;-0.60;99.90;;;;;;5076847;28;20201;-71
2022/11/27 06:40:13;;;;;;;63.77;25.00;;;-0.60;99.90;;;;;;5076795;28;20197;-72
2022/11/27 06:42:40;;;;;;;90.17;27.67;;;-0.60;99.90;;;;;;5076505;28;20268;-71
2022/11/27 06:45:08;;;;;;;85.43;26.37;;;-0.60;99.90;;;;;;5077052;28;20249;-72
2022/11/27 06:47:34;;;;;;;82.47;24.10;;;-0.60;99.90;;;;;;5076818;28;20193;-72
2022/11/27 06:50:01;;;;;;;80.67;27.40;;;-0.60;99.90;;;;;;5076880;28;20251;-72
2022/11/27 06:52:29;;;;;;;71.40;25.40;;;-0.60;99.90;;;;;;5076728;28;20710;-72
2022/11/27 06:54:56;;;;;;;89.50;26.93;;;-0.60;99.90;;;;;;5076763;28;20243;-72
2022/11/27 06:57:22;;;;;;;119.63;28.50;;;-0.60;99.90;;;;;;5076332;28;20201;-70
2022/11/27 06:59:49;;;;;;;66.40;26.00;;;-0.60;99.90;;;;;;5076537;28;20197;-71
2022/11/27 07:02:16;;;;;;;65.33;25.63;;;-0.60;99.90;;;;;;5076497;28;20258;-71
2022/11/27 07:04:43;;;;;;;88.90;28.47;;;-0.50;99.90;;;;;;5076513;28;20201;-71
2022/11/27 07:07:10;;;;;;;79.87;27.03;;;-0.60;99.90;;;;;;5075890;28;20716;-71
2022/11/27 07:09:38;;;;;;;135.70;34.37;;;-0.50;99.90;;;;;;5076322;28;20251;-71
2022/11/27 07:12:07;;;;;;;133.20;30.30;;;-0.50;99.90;;;;;;5076240;28;20219;-72
2022/11/27 07:14:33;;;;;;;178.47;36.57;;;-0.50;99.90;;;;;;5076121;28;20287;-71
2022/11/27 07:17:00;;;;;;;225.07;35.93;;;-0.50;99.90;;;;;;5076214;28;20197;-71
2022/11/27 07:19:27;;;;;;;152.07;29.87;;;-0.50;99.90;;;;;;5075796;28;20652;-71
2022/11/27 07:21:53;;;;;;;193.60;33.43;;;-0.50;99.90;;;;;;5075739;28;20213;-71
2022/11/27 07:24:20;;;;;;;149.33;32.17;;;-0.50;99.90;;;;;;5075996;28;20193;-71
2022/11/27 07:26:48;;;;;;;131.10;31.47;;;-0.50;99.90;;;;;;5075859;28;20251;-71
2022/11/27 07:29:15;;;;;;;164.27;33.97;;;-0.40;99.90;;;;;;5075729;28;20251;-71
2022/11/27 07:31:41;;;;;;;139.87;32.27;;;-0.30;99.90;;;;;;5075982;28;20211;-71
2022/11/27 07:34:08;;;;;;;165.57;32.27;;;-0.30;99.90;;;;;;5075630;28;20665;-72
2022/11/27 07:36:35;;;;;;;133.83;28.57;;;-0.30;99.90;;;;;;5076053;28;20201;-72
2022/11/27 07:39:01;;;;;;;164.53;29.47;;;-0.30;99.90;;;;;;5076122;28;20226;-70
2022/11/27 07:41:28;;;;;;;157.47;31.83;;;-0.20;99.90;;;;;;5075466;28;20560;-71
2022/11/27 07:43:56;;;;;;;72.37;25.87;;;-0.30;99.90;;;;;;5075537;28;20656;-71
2022/11/27 07:46:24;;;;;;;97.90;30.87;;;-0.10;99.90;;;;;;5075684;28;20250;-71
2022/11/27 07:48:51;;;;;;;109.70;33.57;;;-0.10;99.90;;;;;;5075505;28;20200;-71
2022/11/27 07:51:19;;;;;;;97.13;28.67;;;0.00;99.90;;;;;;5075453;28;20255;-72
2022/11/27 07:53:46;;;;;;;174.13;31.33;;;0.00;99.90;;;;;;5075337;28;20201;-72
2022/11/27 07:56:15;;;;;;;100.07;31.23;;;0.00;99.90;;;;;;5075113;28;20597;-72
2022/11/27 07:58:41;;;;;;;172.27;30.07;;;0.10;99.90;;;;;;5075517;28;20201;-72
2022/11/27 08:01:11;;;;;;;188.53;32.53;;;0.00;99.90;;;;;;5078161;28;20193;-72
2022/11/27 08:03:38;;;;;;;101.13;26.30;;;0.00;99.90;;;;;;5079231;28;20250;-72
2022/11/27 08:06:05;;;;;;;94.37;29.17;;;0.10;99.90;;;;;;5077590;28;20201;-72
2022/11/27 08:08:32;;;;;;;85.47;28.50;;;0.10;99.90;;;;;;5081614;28;20196;-72
2022/11/27 08:10:59;;;;;;;87.03;28.70;;;0.20;99.90;;;;;;5079698;28;20208;-72
2022/11/27 08:13:26;;;;;;;98.33;28.73;;;0.20;99.90;;;;;;5078899;28;20208;-72
2022/11/27 08:15:53;;;;;;;64.20;26.73;;;0.30;99.90;;;;;;5080009;28;20193;-71
2022/11/27 08:18:20;;;;;;;77.13;28.57;;;0.40;99.90;;;;;;5079394;28;20200;-71
2022/11/27 08:20:47;;;;;;;104.93;30.03;;;0.50;99.90;;;;;;5078789;28;20254;-72
2022/11/27 08:23:14;;;;;;;64.10;27.57;;;0.40;99.90;;;;;;5077074;28;20229;-71
2022/11/27 08:25:40;;;;;;;58.47;26.37;;;0.60;99.90;;;;;;5075160;28;20216;-71
2022/11/27 08:28:07;;;;;;;53.80;27.20;;;0.70;99.90;;;;;;5074759;28;20219;-71
2022/11/27 08:30:34;;;;;;;73.53;27.23;;;0.80;99.90;;;;;;5074948;28;20197;-72
2022/11/27 08:33:00;;;;;;;59.13;24.00;;;0.80;99.90;;;;;;5074610;28;20197;-71
2022/11/27 08:35:28;;;;;;;71.27;24.80;;;0.80;99.90;;;;;;5074582;28;20201;-71
2022/11/27 08:37:56;;;;;;;223.33;36.40;;;0.80;99.90;;;;;;5074508;28;20201;-72
2022/11/27 08:40:22;;;;;;;45.57;22.90;;;0.70;99.90;;;;;;5074904;28;20247;-71
2022/11/27 08:42:49;;;;;;;45.97;23.40;;;0.80;99.90;;;;;;5074988;28;20266;-72
2022/11/27 08:45:16;;;;;;;46.60;23.77;;;0.70;99.90;;;;;;5075048;28;20193;-72
2022/11/27 08:47:42;;;;;;;36.30;21.20;;;0.70;99.90;;;;;;5075734;28;20196;-71
2022/11/27 08:50:09;;;;;;;42.77;25.57;;;0.90;99.90;;;;;;5074376;28;20196;-72
2022/11/27 08:52:37;;;;;;;37.90;20.77;;;0.90;99.90;;;;;;5075455;28;20223;-72
2022/11/27 08:55:05;;;;;;;34.67;19.77;;;1.00;99.90;;;;;;5075562;28;20266;-72
2022/11/27 08:57:31;;;;;;;33.67;20.80;;;1.10;99.90;;;;;;5075523;28;20192;-73
2022/11/27 08:59:58;;;;;;;31.57;19.63;;;1.20;99.90;;;;;;5074643;28;20216;-72
2022/11/27 09:02:25;;;;;;;35.57;20.30;;;1.30;99.90;;;;;;5074743;28;20221;-72
2022/11/27 09:04:51;;;;;;;31.93;19.80;;;1.30;99.90;;;;;;5074045;28;20241;-71
2022/11/27 09:07:18;;;;;;;29.07;19.40;;;1.40;99.90;;;;;;5074014;28;20221;-71
2022/11/27 09:09:46;;;;;;;29.77;20.10;;;1.40;99.90;;;;;;5074133;28;20281;-72
2022/11/27 09:12:13;;;;;;;30.57;19.43;;;1.50;99.90;;;;;;5074162;28;20254;-72
2022/11/27 09:14:39;;;;;;;28.33;19.00;;;1.50;99.90;;;;;;5073979;28;20667;-72
2022/11/27 09:17:06;;;;;;;37.27;19.97;;;1.50;99.90;;;;;;5073685;28;20201;-72
2022/11/27 09:19:33;;;;;;;29.97;18.37;;;1.50;99.90;;;;;;5073757;28;20197;-72
2022/11/27 09:21:59;;;;;;;29.07;19.00;;;1.50;99.90;;;;;;5073855;28;20196;-72
2022/11/27 09:24:26;;;;;;;26.93;17.53;;;1.60;99.90;;;;;;5073610;28;20648;-72
2022/11/27 09:26:54;;;;;;;30.23;18.00;;;1.70;99.90;;;;;;5073791;28;20644;-72
2022/11/27 09:29:21;;;;;;;51.50;18.83;;;1.80;99.90;;;;;;5073627;28;20247;-72
2022/11/27 09:31:47;;;;;;;33.53;18.07;;;1.70;99.90;;;;;;5073929;28;20200;-72
2022/11/27 09:34:14;;;;;;;26.97;17.07;;;1.70;99.90;;;;;;5073920;28;20201;-72
2022/11/27 09:36:41;;;;;;;32.17;15.60;;;1.80;99.90;;;;;;5073594;28;20619;-72
2022/11/27 09:39:07;;;;;;;52.80;17.33;;;1.80;99.90;;;;;;5073820;28;20652;-72
2022/11/27 09:41:41;;;;;;;51.93;15.50;;;1.80;99.90;;;;;;5073732;28;20258;-72
2022/11/27 09:44:21;;;;;;;48.40;14.77;;;1.70;99.90;;;;;;5073976;28;20274;-72
2022/11/27 09:46:49;;;;;;;33.67;13.70;;;1.70;99.90;;;;;;5074056;28;20201;-73
2022/11/27 09:49:21;;;;;;;57.97;14.93;;;1.80;99.90;;;;;;5073920;28;20299;-72
2022/11/27 09:51:53;;;;;;;35.60;14.47;;;1.70;99.90;;;;;;5074131;28;20232;-73
2022/11/27 09:54:25;;;;;;;36.90;14.80;;;1.80;99.90;;;;;;5074012;28;20204;-73
2022/11/27 09:56:54;;;;;;;26.37;13.57;;;1.70;99.90;;;;;;5073975;28;20655;-73
2022/11/27 09:59:28;;;;;;;28.43;15.00;;;1.80;99.90;;;;;;5073876;28;20250;-73
2022/11/27 10:01:55;;;;;;;38.80;14.30;;;1.90;99.90;;;;;;5074903;28;20200;-73
2022/11/27 10:04:22;;;;;;;54.03;14.77;;;2.10;99.90;;;;;;5077964;28;20224;-73
2022/11/27 10:07:03;;;;;;;44.90;13.90;;;2.10;99.90;;;;;;5078008;28;20630;-73
2022/11/27 10:09:39;;;;;;;45.47;13.53;;;2.10;99.90;;;;;;5077791;28;20197;-73
2022/11/27 10:12:13;;;;;;;22.37;12.30;;;2.10;99.90;;;;;;5078967;28;20266;-73
2022/11/27 10:14:54;;;;;;;22.73;12.10;;;2.10;99.90;;;;;;5078313;28;20210;-73
2022/11/27 10:17:27;;;;;;;25.13;12.90;;;2.10;99.90;;;;;;5077709;28;20246;-72
2022/11/27 10:20:02;;;;;;;29.43;13.50;;;2.10;99.90;;;;;;5077685;28;20193;-72
2022/11/27 10:22:43;;;;;;;36.63;12.73;;;2.10;99.90;;;;;;5078766;28;20200;-73
2022/11/27 10:25:17;;;;;;;47.90;13.17;;;2.20;99.90;;;;;;5078472;28;20200;-73
2022/11/27 10:27:56;;;;;;;34.00;12.53;;;2.10;99.90;;;;;;5077957;28;20205;-72
2022/11/27 10:30:26;;;;;;;23.73;13.27;;;2.20;99.90;;;;;;5077718;28;20667;-72
2022/11/27 10:32:56;;;;;;;23.90;12.83;;;2.30;99.90;;;;;;5077407;28;20228;-72
2022/11/27 10:35:26;;;;;;;28.13;11.70;;;2.30;99.90;;;;;;5078318;28;20192;-72
2022/11/27 10:37:58;;;;;;;44.93;12.67;;;2.20;99.90;;;;;;5080863;28;20648;-73
2022/11/27 10:40:28;;;;;;;43.83;12.70;;;2.30;99.90;;;;;;5079075;28;20225;-73
2022/11/27 10:43:06;;;;;;;24.23;12.30;;;2.20;99.90;;;;;;5077496;28;20305;-73
2022/11/27 10:45:43;;;;;;;36.67;14.20;;;2.20;99.90;;;;;;5078339;28;20269;-72
2022/11/27 10:48:10;;;;;;;33.57;13.17;;;2.30;99.90;;;;;;5082502;28;20197;-72
2022/11/27 10:50:36;;;;;;;27.57;13.17;;;2.40;99.90;;;;;;5084556;28;20206;-72
2022/11/27 10:53:07;;;;;;;26.60;12.07;;;2.50;99.90;;;;;;5083022;28;20200;-72
2022/11/27 10:55:50;;;;;;;23.90;11.63;;;2.60;99.90;;;;;;5081556;28;20680;-72
2022/11/27 10:58:23;;;;;;;32.37;12.93;;;2.60;99.90;;;;;;5081891;28;20530;-71
2022/11/27 11:01:01;;;;;;;20.07;13.10;;;2.60;99.90;;;;;;5080797;28;20207;-72
2022/11/27 11:03:28;;;;;;;18.13;13.47;;;2.70;99.90;;;;;;5085391;28;20247;-72
2022/11/27 11:05:58;;;;;;;16.37;12.03;;;2.90;99.90;;;;;;5085484;28;20224;-75
2022/11/27 11:08:27;;;;;;;17.13;11.93;;;3.00;99.90;;;;;;5085131;28;20215;-72
2022/11/27 11:11:00;;;;;;;16.70;12.73;;;3.20;99.90;;;;;;5077624;28;20243;-72
2022/11/27 11:13:28;;;;;;;17.73;11.77;;;3.40;99.90;;;;;;5076576;28;20197;-72
2022/11/27 11:15:58;;;;;;;16.00;12.30;;;3.30;99.90;;;;;;5076454;28;20199;-72
2022/11/27 11:18:28;;;;;;;14.50;10.97;;;3.20;99.90;;;;;;5076649;28;20256;-72
2022/11/27 11:20:57;;;;;;;15.67;11.80;;;3.20;99.90;;;;;;5076314;28;20241;-73
2022/11/27 11:23:29;;;;;;;18.67;12.57;;;3.30;99.90;;;;;;5075969;28;20272;-73
2022/11/27 11:26:02;;;;;;;16.30;12.93;;;3.30;99.90;;;;;;5076094;28;20396;-73
2022/11/27 11:28:31;;;;;;;21.60;14.37;;;3.40;99.90;;;;;;5075801;28;20208;-73
2022/11/27 11:31:01;;;;;;;17.00;13.13;;;3.50;99.90;;;;;;5076073;28;20722;-73
2022/11/27 11:33:30;;;;;;;16.30;12.80;;;3.70;99.90;;;;;;5075974;28;20231;-72
2022/11/27 11:36:08;;;;;;;19.00;14.77;;;3.80;99.90;;;;;;5076078;28;20225;-72
2022/11/27 11:38:35;;;;;;;20.33;14.40;;;3.70;99.90;;;;;;5075734;28;20231;-72
2022/11/27 11:41:05;;;;;;;23.50;15.63;;;3.60;99.90;;;;;;5076377;28;20199;-73
2022/11/27 11:43:34;;;;;;;19.17;14.93;;;3.70;99.90;;;;;;5076866;28;20222;-73
2022/11/27 11:46:17;;;;;;;21.60;15.27;;;3.80;99.90;;;;;;5076846;28;20203;-73
2022/11/27 11:48:56;;;;;;;19.23;14.33;;;3.80;99.90;;;;;;5076085;28;20199;-73
2022/11/27 11:51:45;;;;;;;18.33;14.00;;;3.80;99.90;;;;;;5075688;28;20614;-73
2022/11/27 11:54:23;;;;;;;21.30;15.37;;;3.90;99.90;;;;;;5075388;28;20256;-73
2022/11/27 11:56:52;;;;;;;18.03;13.67;;;3.90;99.90;;;;;;5075425;28;20270;-74
2022/11/27 11:59:27;;;;;;;19.07;14.47;;;4.00;99.90;;;;;;5075874;28;20557;-73
2022/11/27 12:02:20;;;;;;;18.50;14.03;;;4.00;99.90;;;;;;5075347;28;20199;-73
2022/11/27 12:05:07;;;;;;;17.30;13.70;;;4.20;99.90;;;;;;5075420;28;20235;-72
2022/11/27 12:07:49;;;;;;;16.57;13.07;;;4.20;99.90;;;;;;5074994;28;20337;-73
2022/11/27 12:10:22;;;;;;;17.73;13.90;;;4.20;99.90;;;;;;5075063;28;20257;-72
2022/11/27 12:13:00;;;;;;;16.83;13.03;;;4.20;99.90;;;;;;5074928;28;20614;-73
2022/11/27 12:15:32;;;;;;;18.83;13.57;;;4.20;99.90;;;;;;5075127;28;20207;-73
2022/11/27 12:18:04;;;;;;;17.37;12.83;;;4.30;99.90;;;;;;5075153;28;20195;-72
2022/11/27 12:20:45;;;;;;;16.47;12.57;;;4.30;99.90;;;;;;5075084;28;20580;-72
2022/11/27 12:23:40;;;;;;;18.17;13.57;;;4.20;99.90;;;;;;5075120;28;20213;-72
2022/11/27 12:26:16;;;;;;;18.43;13.37;;;4.10;99.90;;;;;;5074266;28;20257;-73
2022/11/27 12:29:08;;;;;;;15.43;12.37;;;4.20;99.90;;;;;;5074978;28;20199;-72
2022/11/27 12:31:56;;;;;;;22.57;12.13;;;4.50;99.90;;;;;;5075111;28;20286;-73
2022/11/27 12:34:36;;;;;;;13.93;11.90;;;4.30;99.90;;;;;;5074994;28;20607;-72
2022/11/27 12:37:20;;;;;;;13.67;11.13;;;4.40;99.90;;;;;;5075381;28;20234;-72
2022/11/27 12:40:02;;;;;;;13.97;12.07;;;4.60;99.90;;;;;;5074489;28;20655;-72
2022/11/27 12:42:35;;;;;;;16.03;13.33;;;4.90;99.90;;;;;;5074367;28;20201;-72